Time;durP1;ratioP1;P1;durP2;ratioP2;P2;SDS_P1;SDS_P2;PMS_P1;PMS_P2;Temp;Humidity;BMP_temperature;BMP_pressure;BME280_temperature;BME280_humidity;BME280_pressure;Samples;Min_cycle;Max_cycle;Signal;HPM_P1;HPM_P2
2022/04/15 00:02:18;;;;;;;4.43;3.90;;;24.50;37.70;;;;;;5053237;28;20421;-68
2022/04/15 00:04:44;;;;;;;4.30;3.80;;;24.50;37.60;;;;;;5054533;28;20476;-68
2022/04/15 00:07:10;;;;;;;4.22;3.70;;;24.50;37.50;;;;;;5054644;28;20874;-68
2022/04/15 00:09:36;;;;;;;4.80;4.05;;;24.50;37.50;;;;;;5053079;28;20543;-67
2022/04/15 00:12:07;;;;;;;4.30;3.80;;;24.50;37.60;;;;;;5054574;28;20496;-67
2022/04/15 00:14:34;;;;;;;4.47;4.07;;;24.50;37.60;;;;;;5054008;28;20389;-65
2022/04/15 00:17:01;;;;;;;4.35;3.90;;;24.40;37.70;;;;;;5054522;28;20385;-68
2022/04/15 00:19:26;;;;;;;5.55;4.20;;;24.50;37.70;;;;;;5053937;28;20493;-67
2022/04/15 00:21:52;;;;;;;7.80;4.53;;;24.50;37.60;;;;;;5053981;28;20489;-66
2022/04/15 00:24:18;;;;;;;10.27;4.80;;;24.40;38.10;;;;;;5054170;28;20382;-66
2022/04/15 00:26:44;;;;;;;10.10;4.60;;;24.40;38.30;;;;;;5054176;28;20397;-65
2022/04/15 00:29:10;;;;;;;7.18;4.68;;;24.40;38.30;;;;;;5054291;28;20392;-66
2022/04/15 00:31:35;;;;;;;6.77;4.50;;;24.40;38.20;;;;;;5054067;28;20821;-67
2022/04/15 00:34:04;;;;;;;8.05;4.40;;;24.40;37.90;;;;;;5039348;28;20400;-66
2022/04/15 00:36:30;;;;;;;6.85;4.55;;;24.50;37.60;;;;;;5073324;28;20394;-66
2022/04/15 00:38:56;;;;;;;5.75;4.20;;;24.50;37.50;;;;;;5074323;28;20395;-66
2022/04/15 00:41:22;;;;;;;6.82;4.28;;;24.50;37.30;;;;;;5072675;28;20419;-66
2022/04/15 00:43:47;;;;;;;5.20;4.22;;;24.40;37.30;;;;;;5074074;28;20394;-65
2022/04/15 00:46:13;;;;;;;6.00;4.15;;;24.40;37.50;;;;;;5073608;28;20435;-65
2022/04/15 00:48:39;;;;;;;5.80;4.22;;;24.40;37.30;;;;;;5073605;28;20387;-64
2022/04/15 00:51:05;;;;;;;5.53;3.80;;;24.40;37.10;;;;;;5073567;28;20412;-64
2022/04/15 00:53:32;;;;;;;6.63;4.32;;;24.40;37.00;;;;;;5073828;28;20833;-67
2022/04/15 00:56:01;;;;;;;5.40;4.37;;;24.40;37.00;;;;;;5073797;28;20467;-65
2022/04/15 00:58:28;;;;;;;5.82;4.40;;;24.40;37.30;;;;;;5073258;28;20388;-65
2022/04/15 01:00:56;;;;;;;5.80;4.50;;;24.40;37.50;;;;;;5073807;28;20860;-64
2022/04/15 01:03:22;;;;;;;6.28;4.47;;;24.40;37.50;;;;;;5073686;28;20506;-65
2022/04/15 01:05:52;;;;;;;5.03;4.30;;;24.40;37.40;;;;;;5073715;28;20408;-66
2022/04/15 01:08:22;;;;;;;5.35;4.22;;;24.40;37.10;;;;;;5073265;28;20870;-66
2022/04/15 01:10:51;;;;;;;4.95;4.20;;;24.40;37.10;;;;;;5073263;28;20415;-64
2022/04/15 01:13:18;;;;;;;4.77;4.23;;;24.30;37.00;;;;;;5072724;28;20449;-65
2022/04/15 01:15:44;;;;;;;4.70;3.95;;;24.30;37.00;;;;;;5073435;28;20376;-64
2022/04/15 01:18:10;;;;;;;4.88;4.18;;;24.30;37.10;;;;;;5073403;28;20400;-64
2022/04/15 01:20:37;;;;;;;4.47;3.92;;;24.40;37.00;;;;;;5072906;28;20386;-64
2022/04/15 01:23:11;;;;;;;5.50;4.30;;;24.40;36.90;;;;;;5073338;28;20380;-66
2022/04/15 01:25:37;;;;;;;4.93;4.13;;;24.30;36.90;;;;;;5073190;28;20388;-66
2022/04/15 01:28:03;;;;;;;5.95;4.30;;;24.30;37.20;;;;;;5073205;28;20751;-67
2022/04/15 01:30:29;;;;;;;4.78;4.28;;;24.30;37.00;;;;;;5072598;28;20400;-65
2022/04/15 01:32:55;;;;;;;5.40;4.05;;;24.30;37.20;;;;;;5073247;28;20422;-66
2022/04/15 01:35:21;;;;;;;5.57;4.00;;;24.30;37.00;;;;;;5073014;28;20477;-64
2022/04/15 01:37:48;;;;;;;4.68;4.00;;;24.30;36.90;;;;;;5072532;28;20391;-64
2022/04/15 01:40:16;;;;;;;4.90;4.40;;;24.30;36.80;;;;;;5072365;28;20383;-65
2022/04/15 01:42:43;;;;;;;4.55;3.90;;;24.30;37.00;;;;;;5072770;28;20390;-64
2022/04/15 01:45:10;;;;;;;4.82;4.00;;;24.20;37.00;;;;;;5072786;28;20376;-65
2022/04/15 01:47:36;;;;;;;4.60;4.10;;;24.20;37.30;;;;;;5054645;28;20507;-66
2022/04/15 01:50:07;;;;;;;5.05;3.70;;;24.30;37.20;;;;;;5072744;28;20439;-66
2022/04/15 01:52:33;;;;;;;4.47;3.90;;;24.30;37.10;;;;;;5071867;28;20488;-66
2022/04/15 01:54:59;;;;;;;4.20;3.80;;;24.30;37.00;;;;;;5072722;28;20422;-66
2022/04/15 01:57:25;;;;;;;4.82;4.07;;;24.20;36.90;;;;;;5072513;28;20918;-66
2022/04/15 01:59:51;;;;;;;4.57;4.00;;;24.20;36.90;;;;;;5071376;28;20431;-66
2022/04/15 02:02:17;;;;;;;4.80;4.00;;;24.20;37.30;;;;;;5072352;28;20875;-65
2022/04/15 02:04:42;;;;;;;4.60;3.67;;;24.20;36.90;;;;;;5072172;28;20419;-65
2022/04/15 02:07:08;;;;;;;4.85;4.00;;;24.20;36.80;;;;;;5072345;28;20449;-64
2022/04/15 02:09:34;;;;;;;5.10;3.80;;;24.20;36.70;;;;;;5072378;28;20470;-64
2022/04/15 02:12:00;;;;;;;4.93;4.03;;;24.20;36.80;;;;;;5072225;28;20848;-64
2022/04/15 02:14:26;;;;;;;4.25;3.85;;;24.20;36.90;;;;;;5071977;28;20475;-64
2022/04/15 02:16:53;;;;;;;4.50;3.90;;;24.10;37.10;;;;;;5072256;28;20400;-67
2022/04/15 02:19:22;;;;;;;4.28;3.80;;;24.20;37.00;;;;;;5072096;28;20387;-66
2022/04/15 02:21:48;;;;;;;4.35;3.95;;;24.20;36.90;;;;;;5072115;28;20392;-66
2022/04/15 02:24:14;;;;;;;4.03;3.63;;;24.20;36.90;;;;;;5071853;28;20470;-66
2022/04/15 02:26:41;;;;;;;4.57;3.70;;;24.20;36.90;;;;;;5071527;28;20431;-67
2022/04/15 02:29:07;;;;;;;3.97;3.58;;;24.10;36.90;;;;;;5072046;28;20383;-67
2022/04/15 02:31:32;;;;;;;4.45;3.80;;;24.10;37.00;;;;;;5053686;28;21045;-67
2022/04/15 02:33:58;;;;;;;4.32;3.78;;;24.10;37.10;;;;;;5071765;28;20415;-66
2022/04/15 02:36:24;;;;;;;4.20;3.60;;;24.20;37.00;;;;;;5071827;28;20387;-66
2022/04/15 02:38:49;;;;;;;3.75;3.42;;;24.10;36.90;;;;;;5071607;28;20869;-65
2022/04/15 02:41:15;;;;;;;5.30;4.00;;;24.10;36.80;;;;;;5071787;28;20423;-65
2022/04/15 02:43:41;;;;;;;4.10;3.63;;;24.10;36.90;;;;;;5071741;28;20449;-66
2022/04/15 02:46:09;;;;;;;4.17;3.77;;;24.10;37.00;;;;;;5071421;28;20399;-65
2022/04/15 02:48:35;;;;;;;3.97;3.50;;;24.10;37.10;;;;;;5071140;28;20398;-66
2022/04/15 02:51:02;;;;;;;4.00;3.20;;;24.10;36.90;;;;;;5071561;28;20415;-65
2022/04/15 02:53:29;;;;;;;4.05;3.30;;;24.10;36.80;;;;;;5071201;28;20416;-65
2022/04/15 02:55:54;;;;;;;4.03;3.63;;;24.10;36.80;;;;;;5071066;28;20562;-65
2022/04/15 02:58:20;;;;;;;4.10;3.60;;;24.00;36.90;;;;;;5071204;28;20415;-65
2022/04/15 03:00:47;;;;;;;4.50;3.63;;;24.00;36.90;;;;;;5071292;28;20445;-66
2022/04/15 03:03:13;;;;;;;4.10;3.30;;;24.00;37.00;;;;;;5071440;28;20445;-65
2022/04/15 03:05:39;;;;;;;3.65;3.30;;;24.00;37.00;;;;;;5071687;28;20783;-66
2022/04/15 03:08:05;;;;;;;3.42;3.13;;;24.00;36.90;;;;;;5071546;28;20475;-66
2022/04/15 03:10:31;;;;;;;4.20;3.30;;;24.00;36.80;;;;;;5070912;28;20400;-64
2022/04/15 03:12:57;;;;;;;4.38;3.70;;;24.00;37.00;;;;;;5071379;28;20725;-65
2022/04/15 03:15:23;;;;;;;4.10;3.40;;;24.00;37.00;;;;;;5071277;28;20391;-65
2022/04/15 03:17:48;;;;;;;3.63;3.30;;;24.00;37.30;;;;;;5071369;28;20435;-66
2022/04/15 03:20:14;;;;;;;4.25;3.30;;;24.00;37.10;;;;;;5071314;28;20391;-66
2022/04/15 03:22:42;;;;;;;3.60;3.30;;;24.00;37.00;;;;;;5070895;28;20399;-65
2022/04/15 03:25:10;;;;;;;3.67;3.30;;;24.00;36.90;;;;;;5071163;28;20483;-66
2022/04/15 03:27:36;;;;;;;3.88;3.47;;;24.00;36.90;;;;;;5071275;28;20392;-65
2022/04/15 03:30:02;;;;;;;4.10;3.70;;;23.90;36.90;;;;;;5071225;28;20721;-65
2022/04/15 03:32:29;;;;;;;3.53;3.22;;;23.90;37.50;;;;;;5070873;28;20415;-65
2022/04/15 03:34:57;;;;;;;3.58;3.28;;;23.90;37.10;;;;;;5071861;28;20392;-64
2022/04/15 03:37:23;;;;;;;3.63;3.17;;;24.00;37.00;;;;;;5075251;28;20419;-65
2022/04/15 03:39:49;;;;;;;3.90;3.50;;;23.90;37.00;;;;;;5075310;28;20430;-64
2022/04/15 03:42:15;;;;;;;3.78;3.47;;;23.90;37.00;;;;;;5075151;28;20391;-64
2022/04/15 03:44:40;;;;;;;3.90;3.40;;;23.90;37.10;;;;;;5074820;28;20483;-64
2022/04/15 03:47:06;;;;;;;4.32;3.40;;;23.90;37.10;;;;;;5074846;28;20403;-64
2022/04/15 03:49:33;;;;;;;4.10;3.70;;;23.90;37.50;;;;;;5074979;28;20889;-64
2022/04/15 03:51:59;;;;;;;3.65;3.35;;;23.90;37.40;;;;;;5074937;28;20887;-66
2022/04/15 03:54:25;;;;;;;3.60;3.30;;;23.90;37.40;;;;;;5074776;28;20383;-66
2022/04/15 03:56:50;;;;;;;3.87;3.40;;;23.90;37.30;;;;;;5074046;28;21277;-66
2022/04/15 03:59:16;;;;;;;4.00;3.60;;;23.90;37.20;;;;;;5073609;28;20380;-65
2022/04/15 04:01:42;;;;;;;4.10;3.70;;;23.90;37.40;;;;;;5074754;28;20495;-65
2022/04/15 04:04:08;;;;;;;3.90;3.40;;;23.90;37.50;;;;;;5074840;28;20383;-66
2022/04/15 04:06:34;;;;;;;3.58;3.28;;;23.90;37.30;;;;;;5074248;28;20453;-65
2022/04/15 04:09:00;;;;;;;3.55;3.25;;;23.90;37.50;;;;;;5074790;28;20391;-67
2022/04/15 04:11:26;;;;;;;4.20;3.40;;;23.80;37.40;;;;;;5074271;28;20919;-65
2022/04/15 04:13:52;;;;;;;3.65;3.30;;;23.80;37.40;;;;;;5074433;28;20902;-66
2022/04/15 04:16:18;;;;;;;3.83;3.42;;;23.80;37.30;;;;;;5074510;28;20403;-67
2022/04/15 04:18:44;;;;;;;3.80;3.40;;;23.80;37.60;;;;;;5074030;28;20384;-66
2022/04/15 04:21:11;;;;;;;3.72;3.42;;;23.80;37.70;;;;;;5074508;28;20421;-65
2022/04/15 04:23:37;;;;;;;3.65;3.22;;;23.80;37.40;;;;;;5074487;28;20411;-64
2022/04/15 04:26:03;;;;;;;4.20;3.80;;;23.80;37.40;;;;;;5073009;28;20449;-64
2022/04/15 04:28:29;;;;;;;4.00;3.60;;;23.80;37.50;;;;;;5073918;28;20736;-64
2022/04/15 04:30:55;;;;;;;4.00;3.60;;;23.80;37.50;;;;;;5056028;28;20391;-64
2022/04/15 04:33:21;;;;;;;3.65;3.30;;;23.80;37.60;;;;;;5074189;28;20935;-65
2022/04/15 04:35:48;;;;;;;3.97;3.47;;;23.80;37.70;;;;;;5074195;28;20383;-64
2022/04/15 04:38:13;;;;;;;3.50;3.20;;;23.80;37.60;;;;;;5074202;28;20529;-65
2022/04/15 04:40:40;;;;;;;3.67;3.37;;;23.80;37.60;;;;;;5073659;28;20430;-66
2022/04/15 04:43:07;;;;;;;3.90;3.60;;;23.80;37.40;;;;;;5056093;28;20418;-66
2022/04/15 04:45:33;;;;;;;3.70;3.40;;;23.80;37.40;;;;;;5055494;28;20752;-64
2022/04/15 04:48:01;;;;;;;4.00;3.60;;;23.80;38.10;;;;;;5056064;28;20543;-65
2022/04/15 04:50:28;;;;;;;3.80;3.40;;;23.80;37.60;;;;;;5055649;28;20395;-64
2022/04/15 04:52:53;;;;;;;3.73;3.40;;;23.80;37.60;;;;;;5055931;28;20388;-64
2022/04/15 04:55:20;;;;;;;4.38;3.97;;;23.80;37.50;;;;;;5073832;28;20505;-64
2022/04/15 04:57:46;;;;;;;4.05;3.55;;;23.70;38.10;;;;;;5073958;28;20388;-64
2022/04/15 05:00:13;;;;;;;3.90;3.50;;;23.70;37.60;;;;;;5073684;28;20383;-64
2022/04/15 05:02:40;;;;;;;4.07;3.67;;;23.70;37.60;;;;;;5055266;28;20392;-64
2022/04/15 05:05:07;;;;;;;4.07;3.65;;;23.70;37.90;;;;;;5073723;28;20384;-64
2022/04/15 05:07:32;;;;;;;4.05;3.40;;;23.70;38.10;;;;;;5055620;28;20521;-64
2022/04/15 05:09:58;;;;;;;4.38;3.53;;;23.70;38.00;;;;;;5073693;28;20386;-65
2022/04/15 05:12:24;;;;;;;4.30;3.90;;;23.70;38.00;;;;;;5073359;28;20488;-64
2022/04/15 05:14:49;;;;;;;3.97;3.53;;;23.70;37.70;;;;;;5073065;28;20744;-65
2022/04/15 05:17:15;;;;;;;4.55;3.70;;;23.60;37.70;;;;;;5073462;28;20390;-64
2022/04/15 05:19:41;;;;;;;3.90;3.50;;;23.70;38.00;;;;;;5073432;28;20380;-64
2022/04/15 05:22:08;;;;;;;3.80;3.40;;;23.70;38.00;;;;;;5055356;28;20411;-65
2022/04/15 05:24:34;;;;;;;4.00;3.50;;;23.70;38.20;;;;;;5073116;28;20384;-65
2022/04/15 05:27:00;;;;;;;3.90;3.50;;;23.60;37.90;;;;;;5072892;28;20760;-65
2022/04/15 05:29:25;;;;;;;4.13;3.70;;;23.60;37.80;;;;;;5073186;28;20475;-65
2022/04/15 05:31:51;;;;;;;3.97;3.38;;;23.60;37.80;;;;;;5073146;28;20445;-66
2022/04/15 05:34:17;;;;;;;3.90;3.57;;;23.60;38.60;;;;;;5073164;28;20854;-65
2022/04/15 05:36:42;;;;;;;3.78;3.38;;;23.60;38.20;;;;;;5071357;28;20891;-64
2022/04/15 05:39:08;;;;;;;3.90;3.50;;;23.70;37.80;;;;;;5073055;28;20859;-65
2022/04/15 05:41:34;;;;;;;3.95;3.63;;;23.70;37.90;;;;;;5072906;28;20398;-65
2022/04/15 05:44:03;;;;;;;4.10;3.57;;;23.60;38.00;;;;;;5072924;28;20434;-65
2022/04/15 05:46:29;;;;;;;4.10;3.70;;;23.60;38.00;;;;;;5072378;28;20406;-64
2022/04/15 05:48:55;;;;;;;4.35;3.67;;;23.60;38.70;;;;;;5072748;28;20391;-65
2022/04/15 05:51:21;;;;;;;4.37;3.97;;;23.60;38.40;;;;;;5072567;28;20400;-65
2022/04/15 05:53:46;;;;;;;3.63;3.25;;;23.60;38.20;;;;;;5072567;28;20392;-64
2022/04/15 05:56:12;;;;;;;4.10;3.75;;;23.60;38.00;;;;;;5072682;28;20856;-65
2022/04/15 05:58:40;;;;;;;4.33;3.80;;;23.60;38.00;;;;;;5071464;28;20437;-65
2022/04/15 06:01:09;;;;;;;4.15;3.75;;;23.60;38.00;;;;;;5072575;28;20887;-64
2022/04/15 06:03:35;;;;;;;5.22;4.10;;;23.60;38.60;;;;;;5072456;28;20396;-67
2022/04/15 06:06:01;;;;;;;4.40;3.83;;;23.60;38.50;;;;;;5072541;28;20380;-66
2022/04/15 06:08:27;;;;;;;8.33;5.97;;;23.60;38.20;;;;;;5072435;28;20849;-65
2022/04/15 06:10:52;;;;;;;11.20;6.65;;;23.60;38.60;;;;;;5071964;28;20765;-66
2022/04/15 06:13:22;;;;;;;12.47;8.53;;;23.60;39.40;;;;;;5072389;28;20376;-67
2022/04/15 06:15:53;;;;;;;14.50;9.20;;;23.60;39.50;;;;;;5072372;28;20392;-66
2022/04/15 06:18:34;;;;;;;13.87;9.30;;;23.60;39.30;;;;;;5054343;28;20461;-64
2022/04/15 06:21:00;;;;;;;17.38;9.00;;;23.60;40.00;;;;;;5071992;28;20399;-64
2022/04/15 06:23:27;;;;;;;13.48;8.57;;;23.60;38.90;;;;;;5072035;28;20380;-65
2022/04/15 06:25:53;;;;;;;13.00;9.13;;;23.60;38.40;;;;;;5072232;28;20396;-64
2022/04/15 06:28:21;;;;;;;12.77;9.10;;;23.60;38.80;;;;;;5072159;28;20399;-64
2022/04/15 06:30:48;;;;;;;13.10;8.98;;;23.50;39.00;;;;;;5071564;28;20756;-63
2022/04/15 06:33:19;;;;;;;12.88;8.48;;;23.50;39.60;;;;;;5072027;28;20882;-64
2022/04/15 06:35:46;;;;;;;13.15;8.93;;;23.50;39.50;;;;;;5072113;28;20417;-65
2022/04/15 06:38:11;;;;;;;11.63;8.13;;;23.50;39.50;;;;;;5071943;28;20411;-65
2022/04/15 06:40:38;;;;;;;13.17;9.03;;;23.50;39.00;;;;;;5071607;28;20870;-64
2022/04/15 06:43:05;;;;;;;12.18;8.23;;;23.50;39.30;;;;;;5071605;28;20388;-64
2022/04/15 06:45:30;;;;;;;12.73;8.13;;;23.50;39.60;;;;;;5071824;28;20399;-64
2022/04/15 06:47:56;;;;;;;12.35;8.02;;;23.50;39.70;;;;;;5071659;28;20426;-64
2022/04/15 06:50:22;;;;;;;11.87;8.20;;;23.60;40.00;;;;;;5071543;28;20487;-64
2022/04/15 06:52:48;;;;;;;11.82;7.95;;;23.60;39.70;;;;;;5071285;28;20407;-65
2022/04/15 06:55:13;;;;;;;11.50;7.90;;;23.60;39.50;;;;;;5071561;28;20394;-64
2022/04/15 06:57:39;;;;;;;12.93;7.57;;;23.70;39.70;;;;;;5071661;28;20388;-64
2022/04/15 07:00:06;;;;;;;11.20;7.67;;;23.70;39.60;;;;;;5071580;28;20466;-65
2022/04/15 07:02:34;;;;;;;10.55;7.30;;;23.70;39.30;;;;;;5071241;28;20388;-65
2022/04/15 07:04:59;;;;;;;11.30;7.43;;;23.70;39.50;;;;;;5071183;28;20391;-64
2022/04/15 07:07:25;;;;;;;10.30;7.28;;;23.70;39.70;;;;;;5071337;28;20384;-64
2022/04/15 07:09:51;;;;;;;11.60;7.27;;;23.70;39.50;;;;;;5070848;28;20388;-65
2022/04/15 07:12:17;;;;;;;9.93;7.07;;;23.80;39.50;;;;;;5071522;28;20465;-63
2022/04/15 07:14:43;;;;;;;10.60;6.90;;;23.70;39.50;;;;;;5071013;28;20498;-65
2022/04/15 07:17:08;;;;;;;11.15;7.30;;;23.70;39.60;;;;;;5071412;28;20478;-64
2022/04/15 07:19:34;;;;;;;10.70;6.80;;;23.70;39.40;;;;;;5052597;28;20911;-66
2022/04/15 07:22:00;;;;;;;10.70;7.10;;;23.80;39.50;;;;;;5050353;28;20390;-66
2022/04/15 07:24:27;;;;;;;8.45;6.63;;;23.80;39.50;;;;;;5050374;28;20870;-66
2022/04/15 07:26:53;;;;;;;8.88;6.40;;;23.80;39.60;;;;;;5050799;28;20888;-65
2022/04/15 07:29:20;;;;;;;8.35;6.40;;;23.90;39.80;;;;;;5050025;28;20396;-64
2022/04/15 07:31:46;;;;;;;8.57;6.07;;;23.90;40.20;;;;;;5051122;28;20774;-63
2022/04/15 07:34:11;;;;;;;9.17;6.70;;;23.90;39.20;;;;;;5051677;28;20382;-65
2022/04/15 07:39:07;;;;;;;9.83;6.73;;;23.80;40.20;;;;;;5051184;28;20436;-65
2022/04/15 07:41:36;;;;;;;10.27;6.97;;;23.70;40.00;;;;;;5028748;28;20397;-64
2022/04/15 07:44:03;;;;;;;10.15;6.45;;;23.70;40.00;;;;;;5051164;28;20407;-64
2022/04/15 07:46:29;;;;;;;8.73;6.47;;;23.70;40.70;;;;;;5051798;28;20413;-64
2022/04/15 07:48:55;;;;;;;9.00;6.50;;;23.70;40.80;;;;;;5034744;28;20468;-65
2022/04/15 07:51:20;;;;;;;9.73;6.50;;;23.70;40.70;;;;;;5048915;28;20412;-65
2022/04/15 07:53:46;;;;;;;10.37;6.73;;;23.70;40.60;;;;;;5053238;28;20393;-66
2022/04/15 07:56:12;;;;;;;11.32;6.35;;;23.70;40.70;;;;;;5053120;28;20389;-66
2022/04/15 07:58:37;;;;;;;12.13;6.63;;;23.70;41.00;;;;;;5050923;28;20400;-66
2022/04/15 08:01:03;;;;;;;10.15;6.30;;;23.70;41.40;;;;;;5050764;28;20381;-65
2022/04/15 08:03:29;;;;;;;8.20;6.35;;;23.70;41.90;;;;;;5050920;28;20742;-66
2022/04/15 08:05:55;;;;;;;8.60;6.03;;;23.80;42.70;;;;;;5050848;28;20393;-66
2022/04/15 08:08:21;;;;;;;8.50;5.97;;;23.90;43.00;;;;;;5049444;28;20389;-65
2022/04/15 08:10:48;;;;;;;11.55;6.25;;;23.80;41.00;;;;;;5051730;28;20417;-65
2022/04/15 08:13:14;;;;;;;10.55;6.20;;;23.90;42.30;;;;;;5054531;28;20396;-65
2022/04/15 08:15:40;;;;;;;8.32;6.13;;;23.90;41.50;;;;;;5036408;28;20897;-65
2022/04/15 08:18:06;;;;;;;9.05;5.70;;;23.90;41.70;;;;;;5028612;28;20443;-65
2022/04/15 08:20:31;;;;;;;10.30;5.78;;;23.90;42.70;;;;;;5030982;28;20406;-66
2022/04/15 08:22:57;;;;;;;8.60;5.88;;;24.00;42.80;;;;;;5016321;28;20879;-65
2022/04/15 08:25:23;;;;;;;11.47;5.83;;;24.00;43.70;;;;;;5034552;28;20390;-64
2022/04/15 08:27:50;;;;;;;10.77;6.00;;;24.00;43.00;;;;;;5016904;28;20403;-66
2022/04/15 08:30:16;;;;;;;15.93;6.07;;;24.10;42.50;;;;;;5016829;28;20502;-65
2022/04/15 08:32:42;;;;;;;11.38;6.00;;;24.10;42.50;;;;;;5034311;28;20899;-66
2022/04/15 08:35:11;;;;;;;13.13;5.90;;;24.10;42.60;;;;;;5020915;28;20458;-65
2022/04/15 08:37:38;;;;;;;8.45;5.50;;;24.10;42.80;;;;;;5050133;28;20397;-66
2022/04/15 08:40:04;;;;;;;8.98;5.60;;;24.10;42.90;;;;;;5052932;28;20472;-65
2022/04/15 08:42:30;;;;;;;10.82;5.63;;;24.10;42.70;;;;;;5053051;28;20468;-66
2022/04/15 08:44:56;;;;;;;9.55;5.40;;;24.20;42.60;;;;;;5053081;28;20394;-66
2022/04/15 08:47:24;;;;;;;8.53;5.60;;;24.20;42.30;;;;;;5052962;28;20416;-66
2022/04/15 08:49:50;;;;;;;7.72;5.20;;;24.20;42.30;;;;;;5053230;28;20396;-66
2022/04/15 08:52:17;;;;;;;8.20;5.60;;;24.20;40.90;;;;;;5034827;28;20421;-66
2022/04/15 08:54:44;;;;;;;7.30;5.37;;;24.20;41.00;;;;;;5035363;28;20750;-65
2022/04/15 08:57:10;;;;;;;8.43;5.47;;;24.10;40.60;;;;;;5053134;28;20397;-65
2022/04/15 08:59:36;;;;;;;9.48;5.70;;;24.20;40.80;;;;;;5053325;28;20393;-64
2022/04/15 09:02:02;;;;;;;6.65;5.20;;;24.20;41.20;;;;;;5054640;28;20447;-64
2022/04/15 09:04:28;;;;;;;6.90;5.00;;;24.20;40.90;;;;;;5049088;28;20409;-64
2022/04/15 09:06:59;;;;;;;7.13;4.90;;;24.20;40.80;;;;;;5057804;28;20423;-67
2022/04/15 09:09:29;;;;;;;8.55;5.03;;;24.10;40.70;;;;;;5064194;28;20385;-66
2022/04/15 09:11:59;;;;;;;8.07;5.32;;;24.20;40.70;;;;;;5058480;28;20424;-67
2022/04/15 09:14:26;;;;;;;7.13;5.13;;;24.20;40.20;;;;;;5053152;28;20382;-67
2022/04/15 09:16:51;;;;;;;5.78;4.53;;;24.20;40.30;;;;;;5051785;28;20761;-65
2022/04/15 09:19:18;;;;;;;6.77;4.83;;;24.20;39.70;;;;;;5061694;28;20394;-66
2022/04/15 09:21:55;;;;;;;6.32;5.03;;;24.30;40.20;;;;;;5060180;28;20405;-66
2022/04/15 09:24:31;;;;;;;5.97;4.80;;;24.30;40.10;;;;;;5052361;28;20462;-67
2022/04/15 09:26:57;;;;;;;7.17;4.83;;;24.30;40.00;;;;;;5052494;28;20718;-67
2022/04/15 09:29:25;;;;;;;6.25;4.70;;;24.30;40.00;;;;;;5035031;28;20444;-66
2022/04/15 09:31:55;;;;;;;8.48;5.07;;;24.30;40.10;;;;;;5052370;28;20417;-66
2022/04/15 09:34:21;;;;;;;6.60;4.85;;;24.30;40.00;;;;;;5053061;28;20377;-66
2022/04/15 09:36:47;;;;;;;6.18;4.57;;;24.30;40.00;;;;;;5067990;28;20393;-67
2022/04/15 09:39:17;;;;;;;5.57;4.53;;;24.40;40.00;;;;;;5052515;28;20377;-67
2022/04/15 09:41:50;;;;;;;6.07;4.50;;;24.50;39.90;;;;;;5052523;28;20933;-67
2022/04/15 09:44:16;;;;;;;6.70;4.50;;;24.60;39.90;;;;;;5050728;28;20878;-65
2022/04/15 09:46:44;;;;;;;6.15;4.40;;;24.70;39.70;;;;;;5050619;28;20419;-67
2022/04/15 09:49:10;;;;;;;6.10;4.75;;;24.80;39.70;;;;;;5051139;28;20472;-67
2022/04/15 09:51:39;;;;;;;6.30;4.50;;;24.90;39.70;;;;;;5051177;28;20414;-66
2022/04/15 09:54:06;;;;;;;6.50;4.50;;;25.00;39.60;;;;;;5051408;28;20746;-67
2022/04/15 09:56:39;;;;;;;5.38;4.15;;;25.10;39.60;;;;;;5050809;28;20384;-66
2022/04/15 09:59:12;;;;;;;6.63;4.15;;;25.20;39.60;;;;;;5051304;28;20400;-66
2022/04/15 10:01:42;;;;;;;5.32;4.13;;;25.20;39.60;;;;;;5050581;28;20382;-67
2022/04/15 10:04:10;;;;;;;7.68;4.13;;;25.10;39.70;;;;;;5030579;28;20452;-65
2022/04/15 10:06:38;;;;;;;5.15;4.10;;;25.10;39.80;;;;;;5049942;28;20430;-67
2022/04/15 10:09:06;;;;;;;5.75;4.10;;;25.10;40.40;;;;;;5051320;28;20421;-68
2022/04/15 10:11:35;;;;;;;5.68;4.10;;;25.10;40.30;;;;;;5053049;28;20427;-68
2022/04/15 10:14:02;;;;;;;8.45;4.20;;;25.10;40.40;;;;;;5051451;28;20381;-67
2022/04/15 10:16:30;;;;;;;8.00;4.03;;;25.10;40.70;;;;;;5049568;28;20474;-67
2022/04/15 10:18:59;;;;;;;8.60;4.07;;;25.10;40.60;;;;;;5050370;28;20865;-67
2022/04/15 10:21:25;;;;;;;9.93;3.97;;;25.10;40.40;;;;;;5050373;28;20389;-65
2022/04/15 10:23:51;;;;;;;6.43;3.90;;;25.10;40.10;;;;;;5049919;28;20400;-64
2022/04/15 10:26:18;;;;;;;8.15;4.03;;;25.20;40.10;;;;;;5049821;28;20397;-65
2022/04/15 10:28:47;;;;;;;8.47;4.10;;;25.20;40.00;;;;;;5049647;28;20385;-66
2022/04/15 10:31:17;;;;;;;6.00;3.70;;;25.20;39.70;;;;;;5047477;28;20416;-66
2022/04/15 10:33:44;;;;;;;6.78;3.75;;;25.10;39.50;;;;;;5049510;28;20409;-68
2022/04/15 10:36:16;;;;;;;5.60;3.70;;;25.10;39.50;;;;;;5048853;28;20389;-68
2022/04/15 10:39:03;;;;;;;5.68;3.45;;;25.20;39.50;;;;;;5051012;28;20390;-67
2022/04/15 10:41:44;;;;;;;6.00;3.95;;;25.20;39.30;;;;;;5050623;28;20397;-67
2022/04/15 10:44:12;;;;;;;7.88;4.25;;;25.20;40.20;;;;;;5048012;28;20385;-67
2022/04/15 10:46:38;;;;;;;6.22;4.40;;;25.30;42.50;;;;;;5051108;28;20415;-66
2022/04/15 10:49:26;;;;;;;5.22;3.90;;;25.30;40.40;;;;;;5049860;28;20398;-66
2022/04/15 10:52:03;;;;;;;4.47;3.47;;;25.40;40.10;;;;;;5046531;28;20974;-64
2022/04/15 10:54:38;;;;;;;4.30;3.60;;;25.50;40.00;;;;;;5049284;28;20389;-64
2022/04/15 10:57:14;;;;;;;4.97;3.60;;;25.50;39.90;;;;;;5050107;28;20393;-63
2022/04/15 11:02:49;;;;;;;4.70;3.13;;;25.60;40.00;;;;;;5050562;28;20880;-64
2022/04/15 11:05:51;;;;;;;6.13;3.42;;;25.80;40.40;;;;;;5048967;28;20393;-64
2022/04/15 11:08:19;;;;;;;6.35;3.38;;;25.90;40.30;;;;;;5050757;28;20389;-64
2022/04/15 11:11:07;;;;;;;5.32;3.40;;;26.10;40.60;;;;;;5050538;28;20907;-64
2022/04/15 11:13:43;;;;;;;6.03;3.40;;;26.30;40.60;;;;;;5048690;28;20484;-65
2022/04/15 11:16:16;;;;;;;5.43;3.10;;;26.30;40.50;;;;;;5048352;28;20804;-63
2022/04/15 11:18:50;;;;;;;4.40;3.33;;;26.40;40.40;;;;;;5031874;28;20935;-64
2022/04/15 11:21:20;;;;;;;4.05;3.40;;;26.30;40.20;;;;;;5050211;28;20421;-64
2022/04/15 11:23:54;;;;;;;5.28;3.38;;;26.20;39.50;;;;;;5047769;28;20476;-64
2022/04/15 11:26:23;;;;;;;6.32;3.60;;;26.10;39.10;;;;;;5050949;28;20869;-64
2022/04/15 11:28:51;;;;;;;3.67;3.20;;;26.10;38.90;;;;;;5047692;28;20484;-63
2022/04/15 11:31:34;;;;;;;5.70;3.55;;;26.00;38.90;;;;;;5050039;28;20494;-63
2022/04/15 11:34:08;;;;;;;5.63;3.55;;;26.00;38.90;;;;;;5044088;28;20385;-64
2022/04/15 11:36:40;;;;;;;7.25;3.97;;;26.00;39.00;;;;;;5069178;28;20392;-66
2022/04/15 11:39:07;;;;;;;6.57;4.60;;;26.10;38.80;;;;;;5058372;28;20780;-65
2022/04/15 11:41:34;;;;;;;9.10;4.65;;;26.10;38.70;;;;;;5059919;28;20873;-64
2022/04/15 11:43:59;;;;;;;7.05;4.10;;;26.10;38.70;;;;;;5065041;28;20391;-64
2022/04/15 11:46:52;;;;;;;8.32;5.00;;;26.10;38.30;;;;;;5051271;28;20432;-64
2022/04/15 11:49:18;;;;;;;6.72;4.05;;;26.10;38.80;;;;;;5050357;28;20398;-63
2022/04/15 11:51:45;;;;;;;7.88;5.00;;;26.20;38.90;;;;;;5050773;28;20417;-63
2022/04/15 11:54:12;;;;;;;8.50;5.40;;;26.10;39.20;;;;;;5050245;28;20870;-65
2022/04/15 11:56:39;;;;;;;7.75;5.38;;;26.10;38.90;;;;;;5054407;28;20402;-65
2022/04/15 11:59:05;;;;;;;7.63;5.40;;;26.10;38.60;;;;;;5055003;28;20386;-65
2022/04/15 12:01:32;;;;;;;8.65;5.78;;;26.10;38.60;;;;;;5057882;28;20389;-62
2022/04/15 12:03:59;;;;;;;8.90;6.03;;;26.10;38.70;;;;;;5054996;28;20496;-65
2022/04/15 12:06:26;;;;;;;9.45;6.32;;;26.10;38.60;;;;;;5052605;28;20455;-66
2022/04/15 12:08:53;;;;;;;9.10;5.60;;;26.10;38.70;;;;;;5053454;28;20422;-65
2022/04/15 12:11:22;;;;;;;6.88;4.93;;;26.10;38.70;;;;;;5034599;28;20401;-65
2022/04/15 12:13:54;;;;;;;7.17;5.03;;;26.10;38.60;;;;;;5054584;28;20885;-63
2022/04/15 12:16:20;;;;;;;7.70;4.93;;;26.20;38.50;;;;;;5052704;28;20381;-64
2022/04/15 12:18:46;;;;;;;7.70;4.65;;;26.20;38.50;;;;;;5052475;28;20382;-65
2022/04/15 12:21:12;;;;;;;6.85;4.80;;;26.20;38.30;;;;;;5052215;28;20390;-64
2022/04/15 12:23:37;;;;;;;7.13;4.50;;;26.20;38.30;;;;;;5052773;28;20447;-64
2022/04/15 12:26:09;;;;;;;6.07;4.20;;;26.20;38.20;;;;;;5052496;28;20472;-64
2022/04/15 12:31:31;;;;;;;5.78;4.40;;;26.20;38.20;;;;;;5051874;28;20424;-64
2022/04/15 12:34:01;;;;;;;6.18;4.47;;;26.10;38.20;;;;;;5051392;28;20950;-65
2022/04/15 12:36:45;;;;;;;5.57;4.20;;;26.20;38.10;;;;;;5051883;28;20463;-64
2022/04/15 12:39:12;;;;;;;6.20;4.20;;;26.20;38.70;;;;;;5052355;28;20389;-64
2022/04/15 12:41:48;;;;;;;6.40;4.40;;;26.20;38.20;;;;;;5050287;28;20393;-64
2022/04/15 12:44:26;;;;;;;5.18;3.95;;;26.20;38.10;;;;;;5052197;28;20421;-64
2022/04/15 12:47:00;;;;;;;5.55;4.10;;;26.30;38.20;;;;;;5051672;28;20837;-65
2022/04/15 12:49:34;;;;;;;5.43;4.05;;;26.40;38.10;;;;;;5052063;28;20396;-65
2022/04/15 12:52:16;;;;;;;5.85;4.03;;;26.40;38.00;;;;;;5051620;28;20838;-65
2022/04/15 12:54:55;;;;;;;5.85;4.20;;;26.50;38.00;;;;;;5051440;28;20749;-64
2022/04/15 12:57:21;;;;;;;4.65;3.90;;;26.60;37.90;;;;;;5051877;28;20404;-64